Flugplatz Trier-Föhren

Für EDRT sind keine METAR/TAF Berichte vorhanden.
Es werden die Flugwettermeldungen vom Flugplatz Spangdahlem Air Base in 14 km Entfernung angezeigt.

Bericht für ETAD

vom 25.01. um 23:12 UTC

kein Wind

Sichtweite 400 m

Code: FZFG

Temperatur 0.0°C

Taupunkt 0.0°C

Luftfeuchtigkeit 100%

Luftdruck 1019 hPa

ETAD 252312Z AUTO 00000KT 0400 R23/0400V0550 FZFG VV001 00/00 A3009 RMK AO2 UPB03E12 CIG 000 RWY05 SLP200 $

Prognose für ETAD

vom 25.01. um 00:00 UTC

Am 25.01. zwischen 00:00 UTC und 00:00 UTC

Wind 6 kt aus 230°

Sichtweite 200 m

Nebel

bedeckt in 100 ft


Am 25.01. zwischen 00:00 und 00:00 UTC übergehend zu

Wind 6 kt aus 270°

Sichtweite 600 m

Nebel

bedeckt in 200 ft


Am 25.01. zwischen 00:00 und 00:00 UTC übergehend zu

Wind 4 kt aus 240°

Sichtweite 800 m

Nebel

bedeckt in 300 ft


Zwischen 00:00 und 00:00 UTC übergehend zu

Wind 10 kt aus 200° in Böen 15 kt

Sichtweite 6000 m

feuchter Dunst

aufgebrochene Bewölkung in 500 ft

bedeckt in 800 ft

TAF AMD ETAD 251315Z 2513/2613 23006KT 0200 FG OVC001 QNH3014INS BECMG 2514/2515 27006KT 0600 FG OVC002 QNH3010INS BECMG 2518/2519 24004KT 0800 FG OVC003 QNH3000INS BECMG 2612/2613 20010G15KT 6000 BR BKN005 OVC008 QNH2994INS TX02/2515Z TN00/2605Z
Impressum